Airfield :
LOGIN :

Register | Disclaimer

   EN    FR    IT 

 










Legend :    VFR   Marginal VFR   IFR   Intensive IFR   Very Intensive IFR
Visi :
Ceiling :
>= 8 km
>= 3000ft
5 to 8 km
1000 to 3000 ft
1500m to 5 km
500 to 1000 ft
800 to 1500m
200 to 500 ft
< 800m
< 200 ft
Symbols :   Thunderstorms  Fog  Heavy snow  Heavy precipitations  Wind > 20 kt
SIGMETs :     Misc.  Thunderstorms  Icing  Turbulence  Mountain Waves  Volcanic Ashes







- Airport Elevation : 348 ft
- IATA code : STN
- Download approach charts


EGSS - London Stansted

CURRENT METAR :
  • 230750Z AUTO 33009KT 3700 BR OVC004 M00/M01 Q0999

EXPIRED METARs :
  • 230720Z AUTO 32006KT 3400 BR BKN004 BKN012 BKN016 M01/M01 Q0999
  • 230650Z AUTO 33008KT 3700 BR BKN004 OVC016 M00/M01 Q0998
  • 230620Z AUTO 34006KT 3900 BR OVC004 M00/M01 Q0998
  • 230550Z AUTO 34005KT 4100 BR BKN004 M01/M01 Q0998
  • 230520Z AUTO 33004KT 4300 BR SCT006 M01/M02 Q0997

TAF TAF EGSS
Valid from the 23 at 06:00 until the 24 at 12:00 UTC


230455Z 2306/2412 33011KT 9999 SCT035
TEMPO 2306/2310 4000 BR BKN010
PROB30
TEMPO 2306/2309 BKN004
PROB30
TEMPO 2318/2324 8000
BECMG 2400/2403 27005KT
TEMPO 2400/2406 2000 BR BKN002
TEMPO 2406/2412 6000 -RADZ BKN008
PROB30
TEMPO 2406/2412 3000 RADZ BR BKN003
ATIS : +44 1279 669 325
No reported NOTAMs for that airfield.



MET'MAP, your aeronautical weather chart ! - Copyright ORBIFLY December 2007 - Disclaimer

ORBIFLY MET'MAP TEAM :

Programming & Development : Alexandra Zaïnal
Concept & Development : Baudouin d'Aumeries
Co-Development & Prog : Marc-Olivier Méhu
Technical & hardware support : Manuel Goepfert

Contact : metmap@orbifly.com




SOURCES & CREDITS :

   NOAA